Time;durP1;ratioP1;P1;durP2;ratioP2;P2;SDS_P1;SDS_P2;PMS_P1;PMS_P2;Temp;Humidity;BMP_temperature;BMP_pressure;BME280_temperature;BME280_humidity;BME280_pressure;Samples;Min_cycle;Max_cycle;Signal;HPM_P1;HPM_P2
2021/11/30 00:01:17;;;;;;;15.77;13.37;;;;;;;4.02;79.01;100143.56;5060503;28;20908;-68
2021/11/30 00:03:43;;;;;;;18.40;13.60;;;;;;;4.04;80.58;100139.28;5055132;28;20428;-67
2021/11/30 00:06:09;;;;;;;15.73;13.20;;;;;;;4.15;79.84;100123.22;5061158;28;20180;-68
2021/11/30 00:08:36;;;;;;;19.00;14.93;;;;;;;4.11;78.91;100121.41;5052149;28;20222;-67
2021/11/30 00:11:03;;;;;;;18.07;15.30;;;;;;;4.00;78.60;100131.44;5055159;28;20574;-67
2021/11/30 00:13:29;;;;;;;19.40;15.77;;;;;;;4.17;78.34;100129.31;5053660;28;20784;-68
2021/11/30 00:15:56;;;;;;;19.07;15.63;;;;;;;4.25;77.85;100112.31;5060490;28;20463;-67
2021/11/30 00:18:22;;;;;;;18.20;14.50;;;;;;;4.15;77.71;100111.19;5060699;28;20836;-68
2021/11/30 00:20:48;;;;;;;18.90;14.30;;;;;;;4.27;78.24;100112.34;5060636;28;20424;-67
2021/11/30 00:23:14;;;;;;;17.50;14.70;;;;;;;4.27;78.28;100104.63;5044546;28;20415;-68
2021/11/30 00:25:40;;;;;;;19.40;15.90;;;;;;;4.11;78.44;100093.03;5054815;28;20239;-68
2021/11/30 00:28:07;;;;;;;15.60;13.40;;;;;;;4.25;77.41;100091.69;5060154;28;20415;-67
2021/11/30 00:30:33;;;;;;;19.90;14.37;;;;;;;4.13;78.28;100088.81;5059991;28;20450;-68
2021/11/30 00:32:59;;;;;;;21.50;15.37;;;;;;;4.41;77.33;100080.03;5053935;28;20508;-68
2021/11/30 00:35:25;;;;;;;16.67;14.40;;;;;;;4.10;79.34;100089.59;5055145;28;20443;-67
2021/11/30 00:37:50;;;;;;;19.07;15.13;;;;;;;4.34;79.33;100071.28;5059749;28;20416;-67
2021/11/30 00:40:16;;;;;;;20.60;14.80;;;;;;;3.78;80.54;100068.13;5060220;28;20189;-68
2021/11/30 00:42:41;;;;;;;17.27;13.97;;;;;;;4.31;78.85;100060.84;5057878;28;20189;-67
2021/11/30 00:45:09;;;;;;;18.17;15.33;;;;;;;4.19;78.59;100055.41;5059781;28;20581;-67
2021/11/30 00:47:34;;;;;;;17.40;14.13;;;;;;;4.22;78.40;100045.16;5063578;28;20208;-67
2021/11/30 00:50:03;;;;;;;19.83;14.00;;;;;;;4.05;79.38;100045.63;5059786;28;20487;-67
2021/11/30 00:52:29;;;;;;;17.73;15.57;;;;;;;4.12;79.66;100053.53;5040371;28;20181;-67
2021/11/30 00:54:55;;;;;;;17.83;14.90;;;;;;;4.37;78.93;100045.53;5029350;28;20461;-67
2021/11/30 00:57:21;;;;;;;17.70;15.20;;;;;;;4.22;79.79;100040.00;5040248;28;20189;-67
2021/11/30 00:59:46;;;;;;;17.07;14.67;;;;;;;4.24;79.99;100038.34;5039631;28;20178;-68
2021/11/30 01:02:12;;;;;;;23.03;15.80;;;;;;;4.18;79.38;100041.63;5039413;28;20826;-67
2021/11/30 01:04:37;;;;;;;18.80;15.60;;;;;;;4.15;80.13;100025.22;5039412;28;20189;-67
2021/11/30 01:07:03;;;;;;;20.23;16.03;;;;;;;4.21;79.80;100013.31;5039829;28;20268;-67
2021/11/30 01:09:28;;;;;;;16.97;14.70;;;;;;;4.19;81.00;100017.59;5039831;28;20197;-68
2021/11/30 01:11:54;;;;;;;18.63;16.47;;;;;;;4.51;80.43;100011.44;5022207;28;20198;-67
2021/11/30 01:14:21;;;;;;;18.47;15.10;;;;;;;3.92;81.23;99999.72;5009165;28;20257;-68
2021/11/30 01:16:46;;;;;;;20.87;15.80;;;;;;;4.02;81.14;99993.97;5039677;28;20269;-67
2021/11/30 01:19:12;;;;;;;19.40;14.83;;;;;;;4.38;80.13;99980.19;5036610;28;20436;-68
2021/11/30 01:21:38;;;;;;;25.33;16.83;;;;;;;4.69;79.18;99979.97;5039403;28;20221;-67
2021/11/30 01:24:04;;;;;;;18.23;15.77;;;;;;;4.70;79.51;99961.91;5039088;28;20182;-67
2021/11/30 01:26:30;;;;;;;17.60;15.23;;;;;;;4.46;80.08;99964.84;5039427;28;20524;-67
2021/11/30 01:28:55;;;;;;;18.90;15.50;;;;;;;4.60;79.82;99962.59;5009119;28;20460;-67
2021/11/30 01:31:21;;;;;;;17.73;15.00;;;;;;;4.68;79.63;99973.06;5029449;28;20217;-68
2021/11/30 01:33:46;;;;;;;23.10;16.60;;;;;;;4.60;79.22;99975.50;5039486;28;20181;-67
2021/11/30 01:36:12;;;;;;;17.70;15.60;;;;;;;4.57;80.37;99972.81;5038857;28;20418;-68
2021/11/30 01:38:38;;;;;;;21.47;16.63;;;;;;;4.40;80.75;99957.00;5030112;28;20179;-68
2021/11/30 01:41:05;;;;;;;19.07;14.73;;;;;;;4.35;81.17;99963.75;5039640;28;20425;-67
2021/11/30 01:43:44;;;;;;;19.40;16.60;;;;;;;4.60;81.36;99966.84;5038482;28;20206;-68
2021/11/30 01:46:39;;;;;;;20.13;16.17;;;;;;;4.41;81.97;99960.44;5038692;28;20730;-68
2021/11/30 01:52:07;;;;;;;17.80;15.43;;;;;;;4.38;81.11;99946.63;4997061;28;20890;-69
2021/11/30 01:54:33;;;;;;;17.03;14.90;;;;;;;4.54;80.88;99945.22;5029812;28;20468;-68
2021/11/30 01:56:58;;;;;;;17.10;14.90;;;;;;;4.54;81.00;99937.50;5038717;28;20421;-68
2021/11/30 01:59:24;;;;;;;17.40;15.20;;;;;;;4.25;82.62;99936.00;5006908;28;20182;-69
2021/11/30 02:01:50;;;;;;;17.43;14.00;;;;;;;4.15;83.15;99920.31;5030923;28;20196;-68
2021/11/30 02:04:15;;;;;;;20.20;16.07;;;;;;;4.04;83.97;99912.31;5038680;28;20494;-68
2021/11/30 02:06:41;;;;;;;17.83;14.50;;;;;;;4.08;83.65;99907.25;5038840;28;20635;-68
2021/11/30 02:09:06;;;;;;;19.00;15.70;;;;;;;4.25;82.59;99890.44;5025941;28;20552;-68
2021/11/30 02:11:31;;;;;;;20.20;15.60;;;;;;;4.44;83.83;99889.13;5027335;28;20296;-68
2021/11/30 02:13:57;;;;;;;15.90;14.20;;;;;;;4.19;84.13;99880.88;5038704;28;20175;-68
2021/11/30 02:16:23;;;;;;;16.50;13.77;;;;;;;4.16;84.11;99873.03;5027238;28;20474;-67
2021/11/30 02:18:48;;;;;;;18.77;15.13;;;;;;;4.18;82.60;99852.44;5038381;28;20587;-68
2021/11/30 02:21:16;;;;;;;16.10;14.40;;;;;;;4.32;83.96;99845.84;5038288;28;20174;-69
2021/11/30 02:23:48;;;;;;;17.17;14.70;;;;;;;4.15;82.77;99827.44;5038165;28;20232;-68
2021/11/30 02:26:16;;;;;;;17.40;14.70;;;;;;;4.48;81.31;99817.75;5019044;28;20420;-68
2021/11/30 02:28:44;;;;;;;17.83;15.30;;;;;;;4.04;83.18;99819.47;5031000;28;20474;-67
2021/11/30 02:31:11;;;;;;;17.10;15.23;;;;;;;4.10;82.94;99802.41;5036762;28;20458;-67
2021/11/30 02:33:38;;;;;;;19.00;14.57;;;;;;;4.35;83.10;99786.56;5038316;28;20436;-68
2021/11/30 02:39:04;;;;;;;17.10;14.50;;;;;;;4.29;81.91;99776.16;5023178;28;20431;-68
2021/11/30 02:41:29;;;;;;;17.37;14.97;;;;;;;4.31;82.04;99771.00;5020503;28;20429;-68
2021/11/30 02:43:57;;;;;;;15.07;13.10;;;;;;;4.38;82.07;99760.84;5027039;28;20698;-68
2021/11/30 02:46:41;;;;;;;15.80;13.80;;;;;;;4.46;81.47;99754.94;5027044;28;20210;-68
2021/11/30 02:49:09;;;;;;;13.63;12.33;;;;;;;4.44;80.92;99741.13;5018593;28;20505;-68
2021/11/30 02:51:36;;;;;;;13.60;12.20;;;;;;;4.50;82.12;99736.94;5021187;28;20439;-69
2021/11/30 02:54:22;;;;;;;12.47;11.17;;;;;;;4.51;81.24;99719.78;5037770;28;20846;-68
2021/11/30 02:56:53;;;;;;;12.77;11.57;;;;;;;4.42;81.88;99710.13;5038194;28;20437;-67
2021/11/30 02:59:18;;;;;;;12.83;11.33;;;;;;;4.53;81.39;99706.06;5021391;28;20507;-68
2021/11/30 03:02:02;;;;;;;11.30;10.20;;;;;;;4.62;80.13;99687.25;5037270;28;20494;-69
2021/11/30 03:04:28;;;;;;;11.17;10.07;;;;;;;4.25;81.40;99683.16;5015654;28;20185;-67
2021/11/30 03:06:54;;;;;;;12.43;11.13;;;;;;;4.76;80.43;99677.16;5020675;28;20421;-68
2021/11/30 03:09:19;;;;;;;15.47;11.60;;;;;;;4.66;80.47;99683.03;5037696;28;20174;-68
2021/11/30 03:11:45;;;;;;;11.43;10.23;;;;;;;4.22;80.90;99668.50;5037861;28;20435;-69
2021/11/30 03:14:11;;;;;;;11.73;10.67;;;;;;;4.21;82.09;99661.63;5025521;28;20189;-68
2021/11/30 03:16:37;;;;;;;12.07;10.87;;;;;;;4.54;81.30;99644.97;5018257;28;20221;-68
2021/11/30 03:19:03;;;;;;;12.30;11.10;;;;;;;4.35;82.43;99641.22;4985192;28;20183;-68
2021/11/30 03:21:29;;;;;;;13.43;11.23;;;;;;;4.50;82.27;99625.13;5018928;28;20186;-68
2021/11/30 03:23:54;;;;;;;12.33;11.13;;;;;;;4.31;81.68;99627.38;5030575;28;20805;-68
2021/11/30 03:26:19;;;;;;;11.50;10.40;;;;;;;4.30;82.22;99620.50;5038346;28;20177;-67
2021/11/30 03:28:45;;;;;;;11.20;10.10;;;;;;;4.30;82.34;99610.19;5037690;28;20432;-67
2021/11/30 03:31:21;;;;;;;12.60;11.33;;;;;;;4.55;81.87;99600.25;5037323;28;20210;-67
2021/11/30 03:33:59;;;;;;;12.67;11.43;;;;;;;4.34;82.77;99593.91;5028671;28;20185;-68
2021/11/30 03:36:25;;;;;;;11.53;10.53;;;;;;;4.18;83.33;99586.72;5031368;28;20487;-68
2021/11/30 03:38:50;;;;;;;12.47;10.83;;;;;;;4.46;82.37;99574.28;5037667;28;20822;-68
2021/11/30 03:41:15;;;;;;;13.33;11.93;;;;;;;4.64;82.80;99560.78;5037676;28;20483;-68
2021/11/30 03:43:41;;;;;;;12.57;11.37;;;;;;;4.38;82.09;99562.16;5036324;28;20458;-67
2021/11/30 03:46:06;;;;;;;13.63;12.27;;;;;;;4.51;82.75;99541.69;5041281;28;20427;-67
2021/11/30 03:48:32;;;;;;;12.37;11.07;;;;;;;4.21;83.14;99558.44;5041533;28;20174;-67
2021/11/30 03:50:57;;;;;;;13.00;11.67;;;;;;;4.20;83.87;99526.59;5041773;28;20205;-67
2021/11/30 03:53:24;;;;;;;13.93;12.63;;;;;;;4.60;83.74;99521.19;5035262;28;20226;-67
2021/11/30 03:55:49;;;;;;;12.83;11.60;;;;;;;4.62;82.61;99516.88;5038594;28;20240;-68
2021/11/30 03:58:15;;;;;;;11.60;10.30;;;;;;;4.18;83.77;99517.09;5041569;28;20496;-67
2021/11/30 04:00:40;;;;;;;12.07;10.93;;;;;;;4.43;84.58;99507.16;5040835;28;20174;-68
2021/11/30 04:03:05;;;;;;;12.23;10.93;;;;;;;4.20;84.21;99495.63;5038262;28;20269;-68
2021/11/30 04:05:31;;;;;;;12.03;10.83;;;;;;;3.97;85.15;99487.53;5013668;28;20437;-67
2021/11/30 04:07:56;;;;;;;11.37;10.30;;;;;;;4.28;84.69;99494.91;5041519;28;20186;-67
2021/11/30 04:10:22;;;;;;;11.93;10.73;;;;;;;3.97;85.74;99460.91;5040950;28;20170;-68
2021/11/30 04:12:48;;;;;;;11.23;10.13;;;;;;;4.41;84.23;99470.13;5040951;28;20174;-68
2021/11/30 04:15:13;;;;;;;12.10;10.93;;;;;;;4.12;84.82;99442.22;5040989;28;20269;-67
2021/11/30 04:17:40;;;;;;;10.50;9.60;;;;;;;3.92;85.01;99432.44;5040231;28;20448;-67
2021/11/30 04:20:08;;;;;;;10.60;9.60;;;;;;;4.07;85.58;99416.34;5019887;28;20186;-68
2021/11/30 04:22:33;;;;;;;10.20;9.30;;;;;;;4.19;84.70;99416.53;5032423;28;20538;-68
2021/11/30 04:24:58;;;;;;;10.13;9.23;;;;;;;3.99;85.09;99405.94;5040024;28;20421;-67
2021/11/30 04:27:24;;;;;;;11.57;10.47;;;;;;;4.18;85.44;99398.44;5041140;28;20178;-67
2021/11/30 04:29:49;;;;;;;10.40;9.40;;;;;;;4.48;84.03;99386.78;5040081;28;20200;-68
2021/11/30 04:32:14;;;;;;;10.00;9.10;;;;;;;4.32;83.30;99372.84;5038961;28;20249;-69
2021/11/30 04:34:40;;;;;;;10.30;9.40;;;;;;;4.48;84.37;99363.56;5040315;28;20178;-68
2021/11/30 04:37:05;;;;;;;10.70;9.60;;;;;;;4.56;83.07;99380.03;5040300;28;20563;-67
2021/11/30 04:39:33;;;;;;;10.20;9.30;;;;;;;4.11;86.67;99365.69;5035526;28;20197;-68
2021/11/30 04:41:58;;;;;;;10.47;9.50;;;;;;;4.33;84.50;99351.34;5040096;28;20257;-68
2021/11/30 04:44:26;;;;;;;9.90;9.00;;;;;;;4.11;85.63;99352.78;5039732;28;20701;-67
2021/11/30 04:47:02;;;;;;;9.90;9.00;;;;;;;3.97;84.86;99348.31;5040205;28;20354;-68
2021/11/30 04:52:00;;;;;;;11.13;9.80;;;;;;;4.17;86.03;99330.50;5038692;28;20456;-68
2021/11/30 04:54:26;;;;;;;10.43;9.43;;;;;;;4.51;85.46;99330.91;5028027;28;20464;-68
2021/11/30 04:56:52;;;;;;;9.23;8.33;;;;;;;4.17;86.33;99329.66;5033973;28;20433;-67
2021/11/30 04:59:19;;;;;;;11.83;10.63;;;;;;;4.31;86.36;99332.41;5034012;28;20528;-68
2021/11/30 05:01:45;;;;;;;10.87;9.77;;;;;;;4.20;86.96;99317.66;5038965;28;20431;-68
2021/11/30 05:04:11;;;;;;;10.73;9.83;;;;;;;4.25;87.50;99309.97;5038396;28;20888;-68
2021/11/30 05:06:37;;;;;;;11.67;10.50;;;;;;;4.24;88.04;99297.94;5011089;28;20186;-68
2021/11/30 05:09:04;;;;;;;10.63;9.73;;;;;;;4.25;87.17;99297.09;5037320;28;20190;-68
2021/11/30 05:11:29;;;;;;;11.80;10.50;;;;;;;4.37;86.27;99294.66;5039072;28;20195;-68
2021/11/30 05:13:55;;;;;;;9.70;8.80;;;;;;;4.44;88.04;99290.41;5039013;28;20815;-68
2021/11/30 05:16:21;;;;;;;11.00;9.90;;;;;;;4.25;87.63;99272.97;5039702;28;20263;-67
2021/11/30 05:18:46;;;;;;;10.97;9.97;;;;;;;4.27;88.25;99274.75;5040069;28;20174;-67
2021/11/30 05:21:11;;;;;;;12.47;11.17;;;;;;;4.68;87.55;99263.13;5038881;28;20443;-68
2021/11/30 05:23:38;;;;;;;11.73;10.53;;;;;;;4.55;87.25;99252.69;5021972;28;20181;-68
2021/11/30 05:26:05;;;;;;;12.53;11.43;;;;;;;4.76;87.42;99233.06;5048655;28;20185;-67
2021/11/30 05:28:33;;;;;;;11.60;10.50;;;;;;;4.70;87.34;99259.69;5059205;28;20510;-68
2021/11/30 05:31:00;;;;;;;10.80;9.80;;;;;;;4.53;88.00;99250.94;5045933;28;20458;-68
2021/11/30 05:33:25;;;;;;;11.67;10.63;;;;;;;4.49;87.47;99241.44;5039162;28;20432;-68
2021/11/30 05:35:52;;;;;;;13.13;11.93;;;;;;;4.56;87.69;99240.66;5039241;28;20738;-68
2021/11/30 05:38:17;;;;;;;12.10;10.97;;;;;;;4.63;87.86;99237.28;5022171;28;20178;-67
2021/11/30 05:40:43;;;;;;;11.83;10.70;;;;;;;4.77;87.92;99227.06;5039159;28;20409;-68
2021/11/30 05:43:11;;;;;;;11.83;10.73;;;;;;;4.86;87.49;99226.28;5039054;28;20174;-67
2021/11/30 05:45:36;;;;;;;11.47;10.40;;;;;;;4.79;88.14;99238.28;5039737;28;20221;-68
2021/11/30 05:48:02;;;;;;;12.03;10.83;;;;;;;4.81;88.21;99222.81;5039536;28;20433;-68
2021/11/30 05:50:28;;;;;;;12.37;11.27;;;;;;;5.00;88.06;99216.06;5038638;28;20256;-68
2021/11/30 05:52:54;;;;;;;10.77;9.77;;;;;;;4.75;87.81;99215.00;5038597;28;20185;-67
2021/11/30 05:55:19;;;;;;;12.10;10.87;;;;;;;4.94;88.45;99191.06;5038857;28;20608;-67
2021/11/30 05:57:45;;;;;;;11.63;10.50;;;;;;;4.87;87.83;99184.09;5039062;28;20202;-68
2021/11/30 06:00:15;;;;;;;10.30;9.33;;;;;;;4.88;88.09;99206.50;5021249;28;20189;-67
2021/11/30 06:05:21;;;;;;;12.90;11.70;;;;;;;5.37;87.45;99191.34;5038225;28;20406;-67
2021/11/30 06:07:47;;;;;;;12.73;11.47;;;;;;;4.97;87.63;99197.97;5038730;28;20425;-68
2021/11/30 06:10:12;;;;;;;11.40;10.30;;;;;;;5.21;88.17;99187.78;5038049;28;20429;-68
2021/11/30 06:12:38;;;;;;;11.90;10.70;;;;;;;5.17;88.28;99183.47;5038212;28;20213;-68
2021/11/30 06:15:04;;;;;;;11.03;9.93;;;;;;;5.25;88.70;99191.28;5038713;28;20182;-68
2021/11/30 06:17:29;;;;;;;11.03;9.93;;;;;;;5.21;89.07;99184.34;5038449;28;20182;-67
2021/11/30 06:19:54;;;;;;;11.70;10.60;;;;;;;5.23;89.56;99178.31;5037974;28;20560;-68
2021/11/30 06:22:20;;;;;;;12.40;9.70;;;;;;;5.22;89.39;99178.31;5027747;28;20401;-69
2021/11/30 06:24:45;;;;;;;11.57;10.20;;;;;;;5.18;89.55;99177.44;5038294;28;20174;-68
2021/11/30 06:27:10;;;;;;;12.00;10.80;;;;;;;5.28;89.11;99178.38;5038091;28;20302;-68
2021/11/30 06:29:36;;;;;;;11.90;10.60;;;;;;;5.55;88.14;99176.78;5038398;28;20170;-69
2021/11/30 06:32:01;;;;;;;10.80;9.73;;;;;;;5.25;90.33;99174.88;5038871;28;20217;-68
2021/11/30 06:34:27;;;;;;;10.73;9.63;;;;;;;5.30;90.13;99188.69;5037913;28;20197;-68
2021/11/30 06:36:52;;;;;;;10.90;9.83;;;;;;;5.42;88.52;99175.00;5038495;28;20456;-67
2021/11/30 06:39:18;;;;;;;9.80;8.90;;;;;;;5.46;89.61;99182.75;5037501;28;20257;-68
2021/11/30 06:41:43;;;;;;;10.83;9.80;;;;;;;5.74;90.49;99185.47;5020268;28;20212;-68
2021/11/30 06:44:08;;;;;;;9.70;8.80;;;;;;;5.76;89.75;99190.66;5038440;28;20205;-68
2021/11/30 06:46:34;;;;;;;10.33;9.23;;;;;;;5.82;89.35;99180.31;5038061;28;20333;-68
2021/11/30 06:48:59;;;;;;;10.40;9.30;;;;;;;5.28;90.92;99175.78;5037872;28;20193;-67
2021/11/30 06:51:25;;;;;;;10.30;9.30;;;;;;;5.98;89.32;99195.09;5035926;28;20236;-69
2021/11/30 06:53:50;;;;;;;9.70;8.70;;;;;;;5.82;89.59;99193.25;5037401;28;20314;-68
2021/11/30 06:56:15;;;;;;;9.40;8.50;;;;;;;5.72;90.10;99194.94;5031867;28;20186;-68
2021/11/30 06:58:41;;;;;;;8.50;7.70;;;;;;;6.09;89.52;99189.06;5013384;28;20185;-68
2021/11/30 07:01:08;;;;;;;8.97;7.77;;;;;;;5.94;89.08;99184.69;5036849;28;20188;-68
2021/11/30 07:03:34;;;;;;;8.10;7.30;;;;;;;6.16;89.76;99183.06;5036758;28;20236;-69
2021/11/30 07:06:17;;;;;;;8.33;7.10;;;;;;;5.78;90.36;99176.88;5039449;28;20407;-67
2021/11/30 07:09:04;;;;;;;8.10;7.30;;;;;;;6.23;90.03;99183.06;5035177;28;20182;-69
2021/11/30 07:14:05;;;;;;;9.17;7.90;;;;;;;6.31;89.78;99187.41;5048700;28;20419;-68
2021/11/30 07:16:31;;;;;;;8.63;7.83;;;;;;;6.72;86.96;99190.06;5037729;28;20438;-67
2021/11/30 07:18:56;;;;;;;8.53;7.63;;;;;;;6.67;88.48;99188.28;5041521;28;20714;-68
2021/11/30 07:21:22;;;;;;;8.23;6.73;;;;;;;6.85;87.53;99182.28;5041057;28;20411;-67
2021/11/30 07:23:47;;;;;;;7.60;6.63;;;;;;;7.02;86.22;99179.66;5041878;28;20273;-67
2021/11/30 07:26:12;;;;;;;9.67;6.60;;;;;;;6.82;86.44;99190.91;5041215;28;20484;-68
2021/11/30 07:28:38;;;;;;;8.53;6.50;;;;;;;7.28;85.21;99187.41;5039770;28;20190;-69
2021/11/30 07:31:10;;;;;;;9.70;6.83;;;;;;;7.14;85.85;99173.59;5008385;28;20206;-68
2021/11/30 07:33:37;;;;;;;9.03;7.00;;;;;;;7.01;86.00;99178.81;5042184;28;20454;-67
2021/11/30 07:36:09;;;;;;;10.67;5.30;;;;;;;7.25;84.73;99182.19;5041589;28;20439;-68
2021/11/30 07:38:35;;;;;;;10.73;5.50;;;;;;;7.40;82.92;99179.59;5024842;28;20406;-67
2021/11/30 07:41:00;;;;;;;6.80;4.50;;;;;;;7.06;85.30;99179.66;5023653;28;20411;-68
2021/11/30 07:43:26;;;;;;;10.47;5.67;;;;;;;7.54;83.43;99170.91;5040444;28;20256;-66
2021/11/30 07:45:52;;;;;;;12.93;5.07;;;;;;;7.28;83.37;99179.63;5040248;28;20696;-67
2021/11/30 07:48:18;;;;;;;11.53;4.67;;;;;;;7.35;82.99;99186.50;5040226;28;20186;-68
2021/11/30 07:50:44;;;;;;;7.27;3.97;;;;;;;6.93;84.04;99183.13;5037620;28;20473;-68
2021/11/30 07:53:09;;;;;;;8.90;3.80;;;;;;;7.11;82.50;99187.41;5040588;28;20285;-69
2021/11/30 07:55:36;;;;;;;10.30;4.10;;;;;;;7.45;81.74;99174.38;5040010;28;20419;-68
2021/11/30 07:58:02;;;;;;;9.07;4.23;;;;;;;7.49;80.94;99170.06;5041360;28;20178;-68
2021/11/30 08:00:28;;;;;;;11.27;4.40;;;;;;;7.42;80.86;99174.41;5040895;28;20803;-68
2021/11/30 08:02:53;;;;;;;11.43;4.30;;;;;;;7.49;80.06;99172.66;5040713;28;20477;-67
2021/11/30 08:05:18;;;;;;;6.93;3.67;;;;;;;7.57;79.57;99178.66;5040791;28;20203;-69
2021/11/30 08:07:44;;;;;;;10.40;3.90;;;;;;;7.37;79.48;99174.44;5040339;28;20197;-67
2021/11/30 08:10:15;;;;;;;10.07;4.03;;;;;;;7.55;78.13;99189.06;5040807;28;20583;-68
2021/11/30 08:12:40;;;;;;;8.87;4.50;;;;;;;7.57;77.78;99186.44;5040872;28;20202;-68
2021/11/30 08:15:06;;;;;;;9.83;3.60;;;;;;;7.62;77.24;99184.72;5040730;28;20425;-68
2021/11/30 08:17:32;;;;;;;12.00;4.00;;;;;;;7.38;76.35;99181.31;5023455;28;20189;-68
2021/11/30 08:19:57;;;;;;;11.43;6.30;;;;;;;7.86;76.42;99186.34;5040439;28;20420;-67
2021/11/30 08:22:23;;;;;;;12.30;4.30;;;;;;;7.49;76.97;99178.69;5039643;28;20186;-67
2021/11/30 08:24:48;;;;;;;14.60;4.60;;;;;;;7.31;76.48;99184.78;5040311;28;20184;-67
2021/11/30 08:27:14;;;;;;;17.73;6.53;;;;;;;7.67;75.95;99180.38;5040650;28;20200;-68
2021/11/30 08:29:42;;;;;;;12.13;4.93;;;;;;;7.70;74.39;99175.16;5039527;28;20596;-67
2021/11/30 08:32:09;;;;;;;16.80;4.67;;;;;;;7.70;75.51;99176.91;5040421;28;20267;-68
2021/11/30 08:34:38;;;;;;;9.63;4.13;;;;;;;7.65;74.67;99183.84;5039568;28;20407;-69
2021/11/30 08:37:04;;;;;;;9.40;3.90;;;;;;;7.94;74.96;99188.88;5039957;28;20917;-68
2021/11/30 08:39:30;;;;;;;15.43;4.70;;;;;;;7.65;76.29;99195.06;5040345;28;20414;-68
2021/11/30 08:41:57;;;;;;;11.27;5.20;;;;;;;7.97;75.34;99190.59;5040426;28;20384;-67
2021/11/30 08:44:22;;;;;;;10.93;5.00;;;;;;;7.85;75.17;99195.00;5022018;28;20406;-68
2021/11/30 08:46:47;;;;;;;17.80;5.03;;;;;;;7.66;75.63;99202.00;5040367;28;20697;-70
2021/11/30 08:49:13;;;;;;;14.07;4.13;;;;;;;7.64;75.60;99195.94;5040717;28;20174;-69
2021/11/30 08:51:40;;;;;;;12.17;4.80;;;;;;;7.47;75.67;99189.94;5038539;28;20640;-68
2021/11/30 08:54:06;;;;;;;15.90;4.83;;;;;;;7.88;74.07;99199.31;5035225;28;20257;-69
2021/11/30 08:56:31;;;;;;;13.03;4.40;;;;;;;7.58;74.72;99199.41;5039971;28;20786;-69
2021/11/30 08:58:57;;;;;;;14.53;4.50;;;;;;;7.93;74.25;99210.53;5039569;28;20243;-69
2021/11/30 09:01:22;;;;;;;13.27;4.50;;;;;;;7.68;74.27;99210.59;5022110;28;20269;-69
2021/11/30 09:03:47;;;;;;;17.20;4.80;;;;;;;7.52;76.18;99219.31;5020293;28;20206;-68
2021/11/30 09:06:13;;;;;;;12.30;4.80;;;;;;;7.65;76.91;99214.97;5036922;28;20323;-69
2021/11/30 09:08:38;;;;;;;11.47;4.77;;;;;;;7.46;76.93;99220.19;5039645;28;20435;-69
2021/11/30 09:11:04;;;;;;;12.43;4.10;;;;;;;7.59;77.88;99216.72;5039893;28;20279;-68
2021/11/30 09:13:29;;;;;;;13.57;5.30;;;;;;;7.83;77.02;99212.28;5036684;28;20261;-68
2021/11/30 09:15:54;;;;;;;17.33;4.80;;;;;;;7.66;76.60;99220.16;5020312;28;20189;-68
2021/11/30 09:18:20;;;;;;;12.77;4.33;;;;;;;7.53;77.65;99226.22;5016235;28;20205;-69
2021/11/30 09:20:45;;;;;;;16.40;4.50;;;;;;;7.61;77.40;99234.00;5040066;28;20186;-70
2021/11/30 09:23:11;;;;;;;13.23;5.10;;;;;;;7.85;75.47;99227.88;5038544;28;20216;-70
2021/11/30 09:25:36;;;;;;;8.10;4.43;;;;;;;7.36;75.72;99215.88;5039235;28;20192;-68
2021/11/30 09:28:03;;;;;;;12.80;5.10;;;;;;;7.42;75.84;99221.91;5038796;28;20221;-67
2021/11/30 09:30:29;;;;;;;14.13;5.73;;;;;;;7.70;74.95;99223.59;5039056;28;20544;-68
2021/11/30 09:32:54;;;;;;;12.57;4.03;;;;;;;7.91;73.90;99207.97;5036754;28;20478;-68
2021/11/30 09:35:22;;;;;;;14.50;4.60;;;;;;;7.53;74.92;99208.06;5019431;28;20210;-68
2021/11/30 09:37:50;;;;;;;15.33;4.93;;;;;;;7.57;75.16;99202.88;5019432;28;20175;-67
2021/11/30 09:40:18;;;;;;;10.40;3.93;;;;;;;7.64;74.12;99192.47;5025052;28;20657;-68
2021/11/30 09:42:44;;;;;;;13.80;5.20;;;;;;;7.97;72.99;99199.28;5038002;28;20439;-67
2021/11/30 09:45:10;;;;;;;18.30;4.70;;;;;;;7.64;73.40;99197.66;5038684;28;20433;-68
2021/11/30 09:47:38;;;;;;;14.80;4.60;;;;;;;7.77;73.55;99209.72;5019601;28;20167;-67
2021/11/30 09:50:06;;;;;;;15.17;4.40;;;;;;;8.01;72.91;99210.47;5019286;28;20414;-68
2021/11/30 09:52:31;;;;;;;14.50;3.87;;;;;;;8.24;71.90;99206.06;5024414;28;20712;-68
2021/11/30 09:54:57;;;;;;;11.67;4.30;;;;;;;7.93;72.89;99197.56;5038638;28;20450;-68
2021/11/30 09:57:23;;;;;;;12.80;4.13;;;;;;;7.85;72.25;99195.00;5038635;28;20197;-69
2021/11/30 09:59:48;;;;;;;12.87;4.70;;;;;;;7.99;72.81;99207.06;5038552;28;20196;-68
2021/11/30 10:02:15;;;;;;;11.33;4.60;;;;;;;8.12;73.19;99200.03;5038119;28;20201;-68
2021/11/30 10:04:40;;;;;;;10.33;4.20;;;;;;;7.94;73.66;99204.47;5035774;28;20186;-68
2021/11/30 10:07:06;;;;;;;17.20;4.50;;;;;;;8.45;72.10;99193.84;5037888;28;20391;-70
2021/11/30 10:09:32;;;;;;;13.40;4.67;;;;;;;7.73;74.50;99203.69;5014324;28;20806;-68
2021/11/30 10:12:02;;;;;;;10.93;5.33;;;;;;;7.98;73.81;99189.75;5032206;28;20459;-68
2021/11/30 10:14:36;;;;;;;15.83;4.57;;;;;;;8.05;73.26;99189.72;5037905;28;20182;-68
2021/11/30 10:17:19;;;;;;;14.20;5.83;;;;;;;8.49;71.36;99189.50;5021688;28;20426;-69
2021/11/30 10:19:59;;;;;;;10.00;4.70;;;;;;;8.50;71.57;99193.81;5035253;28;20497;-68
2021/11/30 10:22:34;;;;;;;13.63;4.73;;;;;;;9.13;69.60;99184.63;5030496;28;20408;-67
2021/11/30 10:25:23;;;;;;;13.53;4.80;;;;;;;8.82;68.81;99192.69;5027521;28;20398;-68
2021/11/30 10:27:57;;;;;;;12.73;4.40;;;;;;;8.74;69.62;99211.81;5036846;28;20429;-68
2021/11/30 10:30:29;;;;;;;13.57;4.73;;;;;;;8.59;69.66;99212.78;5035688;28;20436;-69
2021/11/30 10:32:58;;;;;;;16.70;5.83;;;;;;;8.58;67.88;99215.41;5035821;28;20506;-70
2021/11/30 10:35:28;;;;;;;14.73;5.37;;;;;;;8.09;67.83;99221.69;5018599;28;20449;-70
2021/11/30 10:37:56;;;;;;;12.20;4.97;;;;;;;8.38;66.69;99234.53;5022248;28;20414;-69
2021/11/30 10:40:23;;;;;;;18.60;6.30;;;;;;;8.27;65.29;99224.19;5018777;28;20412;-66
2021/11/30 10:42:53;;;;;;;16.87;4.63;;;;;;;8.18;65.49;99242.41;5037448;28;20530;-67
2021/11/30 10:45:29;;;;;;;14.57;5.13;;;;;;;8.26;65.54;99234.59;5037764;28;20506;-70
2021/11/30 10:48:05;;;;;;;20.30;5.10;;;;;;;8.17;64.87;99234.63;5036954;28;20412;-70
2021/11/30 10:50:39;;;;;;;9.13;4.47;;;;;;;8.64;64.12;99245.66;5030767;28;20790;-69
2021/11/30 10:53:33;;;;;;;15.43;4.70;;;;;;;8.91;62.95;99240.25;5018711;28;20475;-69
2021/11/30 10:55:59;;;;;;;14.30;5.50;;;;;;;9.90;61.00;99238.44;5036065;28;20426;-68
2021/11/30 10:58:36;;;;;;;11.17;4.90;;;;;;;10.00;59.08;99240.06;5037437;28;20439;-68
2021/11/30 11:01:19;;;;;;;12.10;5.03;;;;;;;10.00;59.04;99229.66;5037308;28;20391;-69
2021/11/30 11:03:48;;;;;;;14.63;4.80;;;;;;;9.39;61.11;99247.66;5037208;28;20502;-69
2021/11/30 11:06:31;;;;;;;15.83;5.30;;;;;;;9.48;61.08;99251.03;5003390;28;20421;-68
2021/11/30 11:09:04;;;;;;;19.23;5.57;;;;;;;8.98;62.57;99272.25;5024455;28;20466;-66
2021/11/30 11:11:41;;;;;;;15.20;5.20;;;;;;;8.20;63.95;99251.06;5036864;28;20471;-68
2021/11/30 11:14:20;;;;;;;20.40;6.13;;;;;;;8.61;61.37;99256.09;5020107;28;20430;-69
2021/11/30 11:16:50;;;;;;;20.13;5.37;;;;;;;8.40;61.26;99245.78;5037203;28;20414;-69
2021/11/30 11:19:16;;;;;;;17.10;5.20;;;;;;;8.44;60.48;99244.00;5032587;28;20402;-70
2021/11/30 11:21:42;;;;;;;17.70;5.50;;;;;;;8.25;60.26;99243.25;5024132;28;20720;-68
2021/11/30 11:24:25;;;;;;;14.70;6.70;;;;;;;8.87;58.66;99245.50;5029664;28;20217;-70
2021/11/30 11:26:53;;;;;;;16.50;5.20;;;;;;;8.34;58.70;99248.41;5023763;28;20178;-70
2021/11/30 11:29:28;;;;;;;13.57;5.23;;;;;;;8.53;57.88;99248.34;5037150;28;20412;-68
2021/11/30 11:31:59;;;;;;;13.57;5.03;;;;;;;8.33;58.13;99249.25;5037067;28;20814;-71
2021/11/30 11:34:30;;;;;;;15.43;5.83;;;;;;;8.79;57.34;99260.28;5020157;28;20416;-70
2021/11/30 11:36:57;;;;;;;17.53;5.20;;;;;;;8.53;57.64;99256.13;5037298;28;20416;-70
2021/11/30 11:39:24;;;;;;;25.60;5.77;;;;;;;8.59;57.25;99254.34;5037588;28;20853;-70
2021/11/30 11:41:53;;;;;;;15.27;5.03;;;;;;;8.67;56.06;99258.63;5037875;28;20833;-70
2021/11/30 11:44:19;;;;;;;22.10;5.53;;;;;;;8.57;56.43;99256.09;5037596;28;20398;-69